Time;durP1;ratioP1;P1;durP2;ratioP2;P2;SDS_P1;SDS_P2;PMS_P1;PMS_P2;Temp;Humidity;BMP_temperature;BMP_pressure;BME280_temperature;BME280_humidity;BME280_pressure;Samples;Min_cycle;Max_cycle;Signal;HPM_P1;HPM_P2
2023/07/06 00:01:46;;;;;;;4.10;1.80;;;20.50;65.90;;;;;;10283639;28;20502;-57
2023/07/06 00:06:47;;;;;;;3.30;2.08;;;20.50;65.90;;;;;;10283228;28;20074;-58
2023/07/06 00:11:48;;;;;;;5.60;2.35;;;20.50;65.90;;;;;;10283801;28;20137;-57
2023/07/06 00:17:06;;;;;;;2.28;1.70;;;20.50;65.90;;;;;;10283158;28;20031;-58
2023/07/06 00:22:09;;;;;;;3.25;1.77;;;20.50;65.90;;;;;;10282452;28;20058;-58
2023/07/06 00:27:10;;;;;;;4.05;2.42;;;20.50;65.90;;;;;;10283483;28;20026;-58
2023/07/06 00:32:26;;;;;;;4.63;3.08;;;20.50;65.90;;;;;;10283047;28;20140;-58
2023/07/06 00:37:26;;;;;;;3.03;2.25;;;20.50;65.90;;;;;;10296228;28;20139;-56
2023/07/06 00:42:28;;;;;;;3.72;2.22;;;20.50;65.90;;;;;;10318090;28;20023;-58
2023/07/06 00:47:36;;;;;;;4.18;2.30;;;20.50;65.90;;;;;;10281773;28;20027;-58
2023/07/06 00:52:48;;;;;;;2.83;1.73;;;20.40;65.90;;;;;;10288211;28;20049;-58
2023/07/06 00:57:54;;;;;;;5.60;2.45;;;20.50;65.90;;;;;;10290639;28;20045;-57
2023/07/06 01:03:01;;;;;;;3.90;2.13;;;20.40;65.80;;;;;;10289889;28;20446;-57
2023/07/06 01:08:12;;;;;;;3.10;2.10;;;20.40;65.90;;;;;;10288031;28;21028;-56
2023/07/06 01:13:13;;;;;;;3.38;2.88;;;20.40;65.80;;;;;;10288644;28;20027;-58
2023/07/06 01:18:34;;;;;;;4.03;3.08;;;20.40;65.80;;;;;;10289377;28;20157;-58
2023/07/06 01:23:56;;;;;;;3.22;1.70;;;20.40;65.80;;;;;;10288949;28;20015;-55
2023/07/06 01:29:21;;;;;;;4.43;1.95;;;20.40;65.80;;;;;;10289199;28;20027;-57
2023/07/06 01:35:08;;;;;;;5.05;2.17;;;20.40;65.80;;;;;;10300227;28;20105;-58
2023/07/06 01:40:10;;;;;;;3.20;2.22;;;20.40;65.90;;;;;;10295710;28;20038;-57
2023/07/06 01:45:17;;;;;;;4.20;2.30;;;20.40;66.40;;;;;;10304510;28;20113;-57
2023/07/06 01:50:21;;;;;;;3.05;1.90;;;20.40;65.80;;;;;;10286916;28;20086;-57
2023/07/06 01:55:43;;;;;;;4.80;2.63;;;20.40;65.80;;;;;;10286537;28;20113;-56
2023/07/06 02:00:53;;;;;;;4.15;2.25;;;20.40;65.70;;;;;;10286348;28;20015;-56
2023/07/06 02:05:54;;;;;;;3.55;2.50;;;20.40;65.70;;;;;;10287362;28;20039;-58
2023/07/06 02:10:54;;;;;;;4.88;2.28;;;20.40;65.70;;;;;;10287340;28;20027;-55
2023/07/06 02:15:55;;;;;;;2.60;1.88;;;20.40;65.80;;;;;;10287429;28;20110;-57
2023/07/06 02:20:57;;;;;;;2.80;2.20;;;20.30;65.60;;;;;;10287284;28;20388;-58
2023/07/06 02:25:58;;;;;;;5.20;2.33;;;20.30;65.60;;;;;;10286871;28;20027;-56
2023/07/06 02:30:59;;;;;;;4.28;2.35;;;20.30;65.60;;;;;;10286817;28;20015;-57
2023/07/06 02:36:00;;;;;;;3.20;1.88;;;20.30;65.70;;;;;;10299528;28;20164;-57
2023/07/06 02:41:04;;;;;;;3.70;2.20;;;20.30;65.60;;;;;;10295698;28;20029;-57
2023/07/06 02:46:04;;;;;;;3.40;2.60;;;20.30;65.60;;;;;;10295173;28;20040;-58
2023/07/06 02:51:06;;;;;;;3.78;2.50;;;20.30;65.60;;;;;;10285800;28;20470;-58
2023/07/06 02:56:07;;;;;;;3.35;2.22;;;20.40;65.70;;;;;;10285862;28;20030;-58
2023/07/06 03:01:08;;;;;;;3.83;2.63;;;20.30;65.60;;;;;;10285770;28;20019;-57
2023/07/06 03:06:09;;;;;;;4.38;2.50;;;20.30;65.50;;;;;;10285028;28;20405;-57
2023/07/06 03:11:10;;;;;;;3.92;2.35;;;20.30;65.60;;;;;;10285115;28;20115;-56
2023/07/06 03:16:11;;;;;;;3.78;2.65;;;20.30;65.50;;;;;;10282145;28;20027;-58
2023/07/06 03:21:11;;;;;;;3.15;2.10;;;20.30;65.40;;;;;;10281533;28;20542;-56
2023/07/06 03:26:13;;;;;;;5.32;2.80;;;20.30;65.40;;;;;;10284686;28;20502;-58
2023/07/06 03:31:14;;;;;;;3.47;2.72;;;20.30;65.40;;;;;;10284919;28;20050;-56
2023/07/06 03:36:15;;;;;;;3.10;2.25;;;20.30;65.40;;;;;;10297211;28;20109;-58
2023/07/06 03:41:17;;;;;;;4.93;2.33;;;20.30;65.40;;;;;;10297010;28;20509;-57
2023/07/06 03:46:17;;;;;;;3.85;2.25;;;20.30;65.40;;;;;;10315161;28;20473;-59
2023/07/06 03:51:18;;;;;;;4.10;2.40;;;20.30;65.90;;;;;;10319971;28;20034;-58
2023/07/06 03:56:27;;;;;;;4.78;3.00;;;20.40;66.00;;;;;;10316151;28;20513;-57
2023/07/06 04:01:31;;;;;;;4.38;2.85;;;20.40;66.00;;;;;;10318580;28;20036;-57
2023/07/06 04:06:32;;;;;;;6.28;2.53;;;20.40;66.00;;;;;;10316033;28;20050;-58
2023/07/06 04:11:32;;;;;;;3.55;2.28;;;20.40;66.00;;;;;;10319454;28;20496;-58
2023/07/06 04:16:33;;;;;;;4.20;1.98;;;20.40;65.30;;;;;;10304929;28;20118;-54
2023/07/06 04:21:34;;;;;;;3.97;1.83;;;20.30;65.20;;;;;;10314974;28;20019;-56
2023/07/06 04:26:35;;;;;;;3.90;2.17;;;20.30;65.30;;;;;;10298749;28;20501;-59
2023/07/06 04:31:37;;;;;;;3.92;2.35;;;20.30;65.40;;;;;;10295360;28;20029;-56
2023/07/06 04:36:39;;;;;;;4.38;2.83;;;20.30;65.40;;;;;;10330281;28;20046;-56
2023/07/06 04:41:43;;;;;;;4.18;2.13;;;20.30;65.50;;;;;;10314514;28;20011;-59
2023/07/06 04:46:44;;;;;;;3.17;2.08;;;20.30;65.40;;;;;;10290857;28;20426;-55
2023/07/06 04:51:44;;;;;;;4.10;2.00;;;20.30;65.90;;;;;;10290400;28;20063;-50
2023/07/06 04:56:45;;;;;;;6.10;2.03;;;20.30;65.30;;;;;;10290409;28;20449;-46
2023/07/06 05:01:46;;;;;;;4.22;2.13;;;20.30;65.40;;;;;;10295715;28;20061;-45
2023/07/06 05:06:47;;;;;;;3.83;2.00;;;20.30;65.40;;;;;;10289883;28;20126;-51
2023/07/06 05:11:48;;;;;;;5.93;3.17;;;20.40;65.80;;;;;;10290090;28;20029;-51
2023/07/06 05:16:48;;;;;;;6.72;2.20;;;20.50;65.80;;;;;;10289464;28;20033;-51
2023/07/06 05:21:49;;;;;;;7.47;3.17;;;20.50;65.90;;;;;;10289335;28;20057;-53
2023/07/06 05:26:50;;;;;;;7.32;2.80;;;20.50;65.60;;;;;;10289082;28;20066;-52
2023/07/06 05:31:50;;;;;;;6.78;2.38;;;20.50;65.60;;;;;;10289092;28;20494;-47
2023/07/06 05:36:51;;;;;;;11.48;2.90;;;20.50;65.90;;;;;;10331462;28;20069;-48
2023/07/06 05:41:52;;;;;;;7.55;3.25;;;20.50;66.10;;;;;;10321135;28;20019;-49
2023/07/06 05:46:52;;;;;;;26.42;3.83;;;20.50;66.00;;;;;;10328543;28;20184;-47
2023/07/06 05:51:54;;;;;;;12.45;2.78;;;20.50;66.10;;;;;;10328570;28;20080;-52
2023/07/06 05:56:57;;;;;;;6.75;3.53;;;20.40;66.10;;;;;;10288197;28;20535;-49
2023/07/06 06:01:59;;;;;;;6.40;3.15;;;20.40;65.80;;;;;;10287737;28;20022;-51
2023/07/06 06:06:59;;;;;;;6.82;2.80;;;20.40;65.60;;;;;;10287572;28;20053;-50
2023/07/06 06:12:00;;;;;;;7.65;2.40;;;20.30;65.60;;;;;;10287798;28;20033;-46
2023/07/06 06:17:01;;;;;;;5.90;2.30;;;20.30;65.60;;;;;;10287478;28;20105;-48
2023/07/06 06:22:04;;;;;;;6.38;3.42;;;20.30;65.60;;;;;;10287142;28;20081;-51
2023/07/06 06:27:05;;;;;;;7.47;3.10;;;20.30;66.00;;;;;;10292229;28;20378;-48
2023/07/06 06:32:07;;;;;;;7.38;2.95;;;20.40;66.20;;;;;;10287049;28;20499;-46
2023/07/06 06:37:09;;;;;;;6.70;2.70;;;20.40;66.00;;;;;;10297229;28;20031;-46
2023/07/06 06:42:13;;;;;;;5.43;2.95;;;20.40;65.70;;;;;;10304156;28;20022;-47
2023/07/06 06:47:13;;;;;;;4.47;2.45;;;20.30;65.60;;;;;;10296734;28;20031;-45
2023/07/06 06:52:14;;;;;;;7.63;3.25;;;20.30;65.60;;;;;;10284249;28;20130;-49
2023/07/06 06:57:16;;;;;;;7.45;3.35;;;20.40;65.90;;;;;;10283922;28;20114;-49
2023/07/06 07:02:17;;;;;;;11.20;3.97;;;20.40;65.90;;;;;;10283708;28;20026;-46
2023/07/06 07:07:17;;;;;;;7.85;2.63;;;20.40;65.90;;;;;;10289337;28;20541;-47
2023/07/06 07:12:18;;;;;;;6.93;2.67;;;20.40;65.90;;;;;;10302741;28;20022;-48
2023/07/06 07:17:19;;;;;;;9.27;2.83;;;20.40;65.80;;;;;;10282470;28;20049;-48
2023/07/06 07:22:21;;;;;;;7.47;2.92;;;20.40;65.80;;;;;;10282950;28;20017;-50
2023/07/06 07:27:22;;;;;;;8.88;3.13;;;20.40;65.90;;;;;;10282812;28;20031;-51
2023/07/06 07:32:23;;;;;;;6.22;2.60;;;20.40;65.90;;;;;;10282194;28;20026;-48
2023/07/06 07:37:24;;;;;;;4.85;2.83;;;20.40;65.90;;;;;;10295626;28;20545;-46
2023/07/06 07:42:25;;;;;;;4.38;2.80;;;20.50;65.80;;;;;;10302401;28;20127;-49
2023/07/06 07:47:27;;;;;;;8.63;3.10;;;20.50;65.70;;;;;;10282008;28;20106;-49
2023/07/06 07:52:28;;;;;;;6.55;3.35;;;20.50;65.80;;;;;;10282370;28;20078;-48
2023/07/06 07:57:30;;;;;;;4.80;2.65;;;20.50;65.90;;;;;;10282137;28;20035;-47
2023/07/06 08:02:32;;;;;;;4.78;2.90;;;20.50;65.90;;;;;;10294415;28;20030;-49
2023/07/06 08:07:33;;;;;;;5.53;3.33;;;20.50;65.90;;;;;;10294993;28;20055;-48
2023/07/06 08:12:33;;;;;;;6.18;3.08;;;20.50;65.80;;;;;;10293616;28;20062;-47
2023/07/06 08:17:36;;;;;;;6.25;3.22;;;20.50;65.80;;;;;;10294860;28;20067;-47
2023/07/06 08:22:37;;;;;;;5.50;3.85;;;20.50;65.80;;;;;;10294874;28;20023;-50
2023/07/06 08:27:39;;;;;;;5.90;3.65;;;20.50;65.90;;;;;;10294506;28;20389;-46
2023/07/06 08:32:40;;;;;;;5.05;3.47;;;20.50;65.90;;;;;;10296441;28;20027;-51
2023/07/06 08:37:40;;;;;;;7.03;4.55;;;20.60;65.80;;;;;;10305820;28;20034;-49
2023/07/06 08:42:43;;;;;;;10.05;4.45;;;20.60;65.70;;;;;;10315474;28;20166;-50
2023/07/06 08:47:46;;;;;;;6.53;4.30;;;20.60;65.70;;;;;;10292998;28;20038;-49
2023/07/06 08:52:48;;;;;;;6.65;4.88;;;20.60;65.70;;;;;;10293061;28;20023;-48
2023/07/06 08:57:49;;;;;;;7.22;4.28;;;20.60;65.70;;;;;;10294002;28;20042;-49
2023/07/06 09:02:57;;;;;;;8.07;5.00;;;20.60;65.70;;;;;;10294388;28;20019;-47
2023/07/06 09:08:00;;;;;;;;;;;20.60;65.70;;;;;;10293067;28;20117;-46
2023/07/06 09:13:24;;;;;;;6.75;4.47;;;20.60;65.60;;;;;;10287781;28;20316;-47
2023/07/06 09:18:25;;;;;;;6.07;3.90;;;20.60;65.70;;;;;;10315889;28;20388;-46
2023/07/06 09:23:26;;;;;;;5.82;3.88;;;20.60;65.70;;;;;;10327228;28;20021;-48
2023/07/06 09:28:29;;;;;;;8.65;4.50;;;20.60;65.70;;;;;;10326878;28;20027;-48
2023/07/06 09:33:30;;;;;;;5.75;4.30;;;20.60;65.70;;;;;;10326759;28;20022;-50
2023/07/06 09:38:41;;;;;;;8.38;5.18;;;20.60;65.60;;;;;;10291032;28;20027;-50
2023/07/06 09:43:42;;;;;;;6.43;4.05;;;20.60;65.60;;;;;;10304875;28;20023;-47
2023/07/06 09:48:42;;;;;;;5.50;3.92;;;20.70;65.60;;;;;;10284638;28;20390;-48
2023/07/06 09:53:50;;;;;;;8.05;4.18;;;20.70;65.70;;;;;;10285698;28;20153;-50
2023/07/06 09:58:52;;;;;;;5.72;4.05;;;20.70;65.60;;;;;;10286181;28;20043;-49
2023/07/06 10:04:38;;;;;;;5.78;3.75;;;20.70;65.60;;;;;;10285646;28;20583;-52
2023/07/06 10:10:30;;;;;;;5.68;4.78;;;20.70;65.60;;;;;;10284637;28;20031;-46
2023/07/06 10:15:51;;;;;;;7.72;4.68;;;20.70;65.60;;;;;;10313031;28;20046;-47
2023/07/06 10:21:13;;;;;;;5.85;4.43;;;20.70;65.40;;;;;;10324845;28;20400;-50
2023/07/06 10:26:32;;;;;;;7.57;5.05;;;20.80;65.50;;;;;;10324106;28;20098;-49
2023/07/06 10:32:04;;;;;;;5.60;3.67;;;20.80;65.40;;;;;;10325075;28;20022;-50
2023/07/06 10:37:06;;;;;;;4.80;3.90;;;20.80;65.50;;;;;;10294375;28;20042;-51
2023/07/06 10:42:25;;;;;;;5.15;4.38;;;20.80;65.40;;;;;;10304502;28;20110;-51
2023/07/06 10:47:39;;;;;;;5.75;4.18;;;20.80;65.40;;;;;;10295532;28;20364;-52
2023/07/06 10:52:45;;;;;;;5.07;3.72;;;20.80;65.40;;;;;;10283866;28;20031;-52
2023/07/06 10:57:52;;;;;;;5.20;4.00;;;20.80;65.40;;;;;;10282988;28;20027;-50
2023/07/06 11:02:56;;;;;;;5.97;4.68;;;20.90;69.60;;;;;;10282060;28;20467;-51
2023/07/06 11:08:00;;;;;;;4.53;3.58;;;21.10;70.00;;;;;;10282578;28;20077;-49
2023/07/06 11:13:01;;;;;;;5.25;3.55;;;21.10;69.20;;;;;;10282917;28;20343;-49
2023/07/06 11:18:33;;;;;;;5.15;3.97;;;21.10;65.90;;;;;;10282590;28;20035;-50
2023/07/06 11:23:55;;;;;;;6.28;5.13;;;21.00;65.70;;;;;;10282864;28;20510;-47
2023/07/06 11:28:56;;;;;;;5.10;3.72;;;21.10;69.00;;;;;;10282525;28;20055;-47
2023/07/06 11:34:20;;;;;;;6.53;4.03;;;21.10;67.30;;;;;;10293372;28;20037;-50
2023/07/06 11:39:49;;;;;;;7.28;4.25;;;21.00;68.00;;;;;;10291591;28;20037;-51
2023/07/06 11:44:52;;;;;;;7.20;4.47;;;21.00;65.80;;;;;;10288053;28;20038;-48
2023/07/06 11:49:59;;;;;;;4.95;4.00;;;21.00;68.70;;;;;;10280941;28;20111;-48
2023/07/06 11:55:28;;;;;;;5.38;4.10;;;21.00;68.40;;;;;;10280348;28;20039;-49
2023/07/06 12:05:48;;;;;;;6.30;4.80;;;20.90;68.30;;;;;;10321610;28;20053;-47
2023/07/06 12:10:56;;;;;;;4.75;3.88;;;20.90;68.20;;;;;;10320518;28;20495;-48
2023/07/06 12:16:27;;;;;;;4.03;3.20;;;20.90;68.10;;;;;;10321413;28;20288;-48
2023/07/06 12:21:32;;;;;;;5.45;3.70;;;20.80;68.00;;;;;;10310053;28;20080;-50
2023/07/06 12:26:45;;;;;;;5.43;4.15;;;20.90;67.90;;;;;;10321489;28;20457;-47
2023/07/06 12:31:47;;;;;;;5.13;3.33;;;20.80;67.80;;;;;;10321157;28;20026;-48
2023/07/06 12:36:51;;;;;;;4.47;3.55;;;20.80;67.70;;;;;;10299254;28;20039;-49
2023/07/06 12:41:53;;;;;;;4.50;3.58;;;20.80;67.60;;;;;;10299148;28;20042;-46
2023/07/06 12:47:01;;;;;;;6.63;3.88;;;20.70;67.50;;;;;;10324024;28;20038;-49
2023/07/06 12:52:03;;;;;;;4.47;3.50;;;20.80;67.50;;;;;;10328891;28;20044;-50
2023/07/06 12:57:18;;;;;;;5.43;3.70;;;20.80;67.40;;;;;;10327225;28;20034;-48
2023/07/06 13:02:21;;;;;;;3.53;3.03;;;20.80;67.10;;;;;;10326765;28;20686;-46
2023/07/06 13:07:28;;;;;;;5.70;3.25;;;20.80;66.40;;;;;;10327800;28;20514;-51
2023/07/06 13:12:34;;;;;;;4.03;3.33;;;20.80;66.20;;;;;;10327618;28;20061;-49
2023/07/06 13:17:35;;;;;;;5.22;3.40;;;20.80;66.10;;;;;;10327786;28;20114;-46
2023/07/06 13:22:37;;;;;;;5.03;2.90;;;20.80;66.10;;;;;;10327580;28;20034;-46
2023/07/06 13:27:37;;;;;;;3.85;3.20;;;20.80;66.00;;;;;;10325994;28;20064;-48
2023/07/06 13:32:41;;;;;;;4.43;3.50;;;20.90;65.90;;;;;;10326980;28;20538;-49
2023/07/06 13:37:43;;;;;;;4.13;3.30;;;20.90;65.90;;;;;;10296763;28;20649;-48
2023/07/06 13:42:47;;;;;;;3.42;3.10;;;20.90;65.70;;;;;;10306898;28;20023;-47
2023/07/06 13:47:48;;;;;;;3.90;3.13;;;20.90;65.70;;;;;;10286442;28;20030;-47
2023/07/06 13:52:50;;;;;;;4.93;3.33;;;20.90;65.70;;;;;;10285652;28;20054;-47
2023/07/06 13:57:51;;;;;;;4.63;2.95;;;20.90;65.70;;;;;;10285479;28;20034;-50
2023/07/06 14:02:51;;;;;;;4.10;2.92;;;20.90;65.70;;;;;;10285750;28;20026;-48
2023/07/06 14:07:52;;;;;;;4.10;2.72;;;20.90;65.60;;;;;;10285254;28;20548;-48
2023/07/06 14:12:53;;;;;;;4.55;3.10;;;20.90;65.50;;;;;;10285319;28;20095;-47
2023/07/06 14:17:53;;;;;;;4.47;2.85;;;20.90;65.70;;;;;;10285293;28;20129;-49
2023/07/06 14:22:54;;;;;;;4.25;2.58;;;20.90;65.50;;;;;;10285045;28;20018;-51
2023/07/06 14:27:56;;;;;;;4.40;2.55;;;20.90;65.50;;;;;;10284452;28;20117;-51
2023/07/06 14:32:59;;;;;;;3.42;2.90;;;20.90;65.60;;;;;;10288177;28;20093;-52
2023/07/06 14:37:59;;;;;;;3.10;2.67;;;20.90;65.50;;;;;;10293053;28;20143;-52
2023/07/06 14:43:00;;;;;;;3.10;2.60;;;20.90;65.70;;;;;;10304894;28;20386;-49
2023/07/06 14:48:01;;;;;;;3.65;2.80;;;20.90;65.60;;;;;;10283664;28;20437;-47
2023/07/06 14:53:02;;;;;;;3.80;2.95;;;20.90;65.50;;;;;;10283395;28;20027;-53
2023/07/06 14:58:04;;;;;;;2.92;2.47;;;20.90;65.40;;;;;;10283575;28;20405;-48
2023/07/06 15:03:05;;;;;;;2.90;2.40;;;21.00;65.90;;;;;;10283421;28;20019;-51
2023/07/06 15:08:06;;;;;;;3.03;2.33;;;20.90;65.30;;;;;;10296719;28;20058;-52
2023/07/06 15:13:06;;;;;;;3.58;2.45;;;20.90;65.40;;;;;;10283008;28;20057;-50
2023/07/06 15:18:07;;;;;;;3.78;2.65;;;20.90;65.00;;;;;;10282511;28;20505;-49
2023/07/06 15:23:08;;;;;;;2.83;2.20;;;21.00;64.90;;;;;;10282747;28;20062;-49
2023/07/06 15:28:08;;;;;;;3.63;2.40;;;21.00;64.50;;;;;;10282818;28;20512;-48
2023/07/06 15:33:09;;;;;;;4.03;2.53;;;20.90;64.50;;;;;;10287799;28;20099;-47
2023/07/06 15:38:10;;;;;;;2.88;2.15;;;21.00;64.70;;;;;;10289377;28;20121;-51
2023/07/06 15:43:10;;;;;;;4.25;2.78;;;21.00;64.80;;;;;;10302192;28;20109;-48
2023/07/06 15:48:12;;;;;;;3.28;2.28;;;21.00;64.70;;;;;;10318739;28;20117;-54
2023/07/06 15:53:12;;;;;;;3.42;2.65;;;21.00;64.80;;;;;;10300333;28;20055;-52
2023/07/06 15:58:13;;;;;;;2.63;2.40;;;21.00;64.70;;;;;;10297135;28;20126;-54
2023/07/06 16:03:14;;;;;;;4.40;3.30;;;21.00;64.60;;;;;;10292568;28;20011;-52
2023/07/06 16:08:15;;;;;;;7.07;2.70;;;21.10;64.60;;;;;;10307822;28;20144;-50
2023/07/06 16:13:17;;;;;;;7.28;3.08;;;21.30;65.40;;;;;;10294026;28;20030;-49
2023/07/06 16:18:17;;;;;;;8.30;3.78;;;21.40;64.00;;;;;;10284836;28;20062;-51
2023/07/06 16:23:18;;;;;;;7.65;3.58;;;21.50;67.70;;;;;;10321219;28;20101;-49
2023/07/06 16:28:19;;;;;;;13.98;4.30;;;21.60;67.40;;;;;;10291429;28;20015;-49
2023/07/06 16:33:19;;;;;;;14.60;3.38;;;21.70;66.50;;;;;;10297630;28;20105;-51
2023/07/06 16:38:20;;;;;;;18.10;3.50;;;21.70;65.80;;;;;;10297146;28;20082;-47
2023/07/06 16:43:21;;;;;;;9.23;3.28;;;21.70;65.70;;;;;;10311742;28;20435;-50
2023/07/06 16:48:22;;;;;;;9.43;3.67;;;21.70;65.50;;;;;;10292211;28;20034;-48
2023/07/06 16:53:25;;;;;;;7.53;3.67;;;21.60;65.80;;;;;;10295890;28;20019;-48
2023/07/06 16:58:28;;;;;;;7.00;2.95;;;21.50;65.70;;;;;;10321193;28;20030;-49
2023/07/06 17:03:28;;;;;;;13.00;4.03;;;21.40;65.70;;;;;;10289815;28;20023;-49
2023/07/06 17:08:30;;;;;;;6.43;3.05;;;21.40;65.60;;;;;;10290283;28;20019;-47
2023/07/06 17:13:30;;;;;;;9.93;3.40;;;21.30;65.50;;;;;;10316810;28;20038;-52
2023/07/06 17:18:33;;;;;;;12.23;4.10;;;21.30;65.50;;;;;;10329094;28;20410;-49
2023/07/06 17:23:34;;;;;;;6.90;2.75;;;21.30;65.60;;;;;;10329519;28;20018;-48
2023/07/06 17:28:35;;;;;;;6.47;3.08;;;21.30;65.60;;;;;;10327483;28;20026;-47
2023/07/06 17:33:36;;;;;;;9.63;2.95;;;21.30;65.20;;;;;;10328449;28;20026;-50
2023/07/06 17:38:38;;;;;;;10.75;3.28;;;21.30;65.30;;;;;;10292516;28;20089;-48
2023/07/06 17:43:39;;;;;;;10.55;3.53;;;21.30;65.30;;;;;;10320034;28;20101;-49
2023/07/06 17:48:40;;;;;;;10.68;3.92;;;21.30;65.30;;;;;;10324174;28;20033;-48
2023/07/06 17:53:41;;;;;;;12.27;3.30;;;21.30;65.50;;;;;;10325333;28;20093;-47
2023/07/06 17:58:42;;;;;;;8.27;3.42;;;21.30;65.50;;;;;;10304278;28;20113;-49
2023/07/06 18:03:42;;;;;;;10.52;3.90;;;21.30;65.50;;;;;;10301914;28;20043;-49
2023/07/06 18:08:43;;;;;;;7.80;2.83;;;21.30;65.50;;;;;;10324979;28;20026;-51
2023/07/06 18:13:44;;;;;;;5.60;2.85;;;21.30;65.30;;;;;;10307499;28;20038;-48
2023/07/06 18:18:45;;;;;;;8.80;3.40;;;21.30;65.20;;;;;;10346336;28;20030;-49
2023/07/06 18:23:46;;;;;;;10.75;3.28;;;21.30;65.40;;;;;;10328729;28;20046;-51
2023/07/06 18:28:46;;;;;;;6.20;3.10;;;21.30;65.60;;;;;;10337243;28;20106;-52
2023/07/06 18:33:47;;;;;;;10.63;3.80;;;21.20;65.50;;;;;;10325764;28;20073;-47
2023/07/06 18:38:48;;;;;;;7.18;2.88;;;21.20;65.40;;;;;;10327296;28;20042;-49
2023/07/06 18:43:48;;;;;;;10.85;3.60;;;21.20;65.40;;;;;;10324821;28;20048;-50
2023/07/06 18:48:49;;;;;;;6.60;3.22;;;21.20;65.30;;;;;;10323700;28;20053;-49
2023/07/06 18:53:50;;;;;;;5.22;2.95;;;21.20;65.30;;;;;;10332679;28;20049;-51
2023/07/06 18:58:50;;;;;;;5.80;2.58;;;21.10;65.40;;;;;;10309984;28;20113;-50
2023/07/06 19:03:51;;;;;;;5.18;2.60;;;21.10;65.60;;;;;;10325855;28;20369;-51
2023/07/06 19:08:52;;;;;;;5.22;2.78;;;21.20;65.80;;;;;;10318532;28;20030;-48
2023/07/06 19:13:53;;;;;;;5.38;2.40;;;21.20;66.00;;;;;;10317047;28;20444;-47
2023/07/06 19:18:54;;;;;;;7.18;3.25;;;21.20;66.20;;;;;;10310496;28;20111;-47
2023/07/06 19:23:55;;;;;;;5.82;2.67;;;21.20;66.40;;;;;;10307089;28;20056;-51
2023/07/06 19:28:56;;;;;;;6.47;2.08;;;21.20;66.50;;;;;;10302123;28;20030;-49
2023/07/06 19:33:56;;;;;;;8.00;2.72;;;21.20;66.00;;;;;;10295890;28;20105;-49
2023/07/06 19:38:57;;;;;;;4.60;2.53;;;21.20;66.00;;;;;;10285302;28;20038;-47
2023/07/06 19:43:58;;;;;;;5.07;2.75;;;21.10;65.90;;;;;;10301764;28;20026;-49
2023/07/06 19:48:59;;;;;;;4.60;2.33;;;21.10;66.10;;;;;;10281489;28;20027;-48
2023/07/06 19:53:59;;;;;;;4.70;2.30;;;21.10;66.30;;;;;;10283038;28;20146;-47
2023/07/06 19:59:04;;;;;;;4.10;2.78;;;21.00;66.20;;;;;;10283255;28;20042;-48
2023/07/06 20:04:05;;;;;;;3.15;2.40;;;21.00;66.10;;;;;;10293056;28;20410;-46
2023/07/06 20:09:06;;;;;;;4.43;2.28;;;21.00;66.10;;;;;;10282991;28;20035;-49
2023/07/06 20:14:07;;;;;;;4.60;2.58;;;21.00;66.00;;;;;;10283162;28;20023;-48
2023/07/06 20:19:08;;;;;;;2.80;2.13;;;21.00;66.00;;;;;;10295388;28;20029;-49
2023/07/06 20:24:08;;;;;;;4.93;2.50;;;21.00;66.00;;;;;;10282822;28;20548;-48
2023/07/06 20:29:10;;;;;;;5.50;2.53;;;21.00;66.00;;;;;;10283097;28;20679;-50
2023/07/06 20:34:11;;;;;;;4.80;2.67;;;20.90;65.90;;;;;;10295522;28;20015;-49
2023/07/06 20:39:12;;;;;;;5.07;3.22;;;20.90;65.90;;;;;;10281243;28;20049;-51
2023/07/06 20:44:12;;;;;;;5.75;3.17;;;20.90;65.80;;;;;;10303503;28;20050;-51
2023/07/06 20:49:13;;;;;;;3.33;2.17;;;20.90;65.80;;;;;;10286117;28;20023;-48
2023/07/06 20:54:14;;;;;;;4.80;2.35;;;20.90;65.80;;;;;;10303933;28;20071;-48
2023/07/06 20:59:14;;;;;;;4.05;2.28;;;20.90;65.80;;;;;;10282356;28;20057;-49
2023/07/06 21:04:15;;;;;;;3.67;2.20;;;20.90;65.80;;;;;;10281788;28;20062;-49
2023/07/06 21:09:16;;;;;;;3.63;2.10;;;20.90;65.80;;;;;;10296366;28;20485;-51
2023/07/06 21:14:19;;;;;;;4.70;2.03;;;20.90;65.80;;;;;;10294241;28;20111;-47
2023/07/06 21:19:21;;;;;;;3.80;2.42;;;20.80;65.70;;;;;;10289277;28;20039;-47
2023/07/06 21:24:21;;;;;;;5.63;2.30;;;20.90;65.70;;;;;;10289422;28;20057;-47
2023/07/06 21:29:22;;;;;;;2.65;2.03;;;20.90;65.80;;;;;;10288903;28;20102;-47
2023/07/06 21:34:23;;;;;;;2.92;2.22;;;20.90;65.80;;;;;;10301792;28;20412;-50
2023/07/06 21:39:24;;;;;;;3.50;2.67;;;20.90;65.70;;;;;;10288522;28;20037;-47
2023/07/06 21:44:25;;;;;;;3.53;2.05;;;20.90;65.70;;;;;;10313495;28;20019;-48
2023/07/06 21:49:26;;;;;;;2.72;2.25;;;20.80;65.70;;;;;;10295284;28;20035;-47
2023/07/06 21:54:30;;;;;;;3.03;2.28;;;20.80;65.60;;;;;;10287634;28;21174;-48
2023/07/06 21:59:31;;;;;;;2.03;1.67;;;20.80;65.60;;;;;;10287491;28;20089;-47
2023/07/06 22:04:32;;;;;;;3.47;2.75;;;20.80;65.60;;;;;;10286367;28;20039;-47
2023/07/06 22:09:32;;;;;;;3.15;2.05;;;20.80;65.50;;;;;;10286619;28;20513;-47
2023/07/06 22:14:34;;;;;;;3.08;2.55;;;20.80;65.50;;;;;;10287190;28;20027;-50
2023/07/06 22:19:34;;;;;;;2.85;2.00;;;20.80;65.50;;;;;;10286003;28;20027;-52
2023/07/06 22:24:35;;;;;;;3.67;2.00;;;20.80;66.00;;;;;;10286161;28;20034;-50
2023/07/06 22:29:36;;;;;;;3.88;2.63;;;20.80;65.40;;;;;;10286498;28;20039;-49
2023/07/06 22:34:37;;;;;;;4.15;2.58;;;20.80;65.30;;;;;;10299606;28;20110;-51
2023/07/06 22:39:37;;;;;;;2.67;2.28;;;20.80;65.30;;;;;;10284948;28;20031;-47
2023/07/06 22:44:38;;;;;;;3.08;2.72;;;20.80;65.20;;;;;;10314476;28;20097;-49
2023/07/06 22:49:39;;;;;;;4.05;2.08;;;20.70;65.10;;;;;;10298844;28;20058;-47
2023/07/06 22:54:40;;;;;;;3.00;2.30;;;20.80;65.20;;;;;;10285723;28;20474;-47
2023/07/06 22:59:41;;;;;;;2.72;2.50;;;20.80;65.10;;;;;;10285265;28;20035;-49
2023/07/06 23:04:43;;;;;;;3.00;2.33;;;20.70;65.00;;;;;;10283514;28;20043;-50
2023/07/06 23:09:43;;;;;;;2.28;1.98;;;20.70;65.00;;;;;;10283617;28;20025;-48
2023/07/06 23:14:44;;;;;;;4.68;3.17;;;20.80;65.00;;;;;;10284769;28;20571;-49
2023/07/06 23:19:56;;;;;;;3.72;2.40;;;20.70;64.90;;;;;;10284219;28;20035;-48
2023/07/06 23:24:57;;;;;;;3.50;2.67;;;20.70;64.90;;;;;;10284559;28;20113;-50
2023/07/06 23:29:58;;;;;;;3.63;2.38;;;20.70;64.80;;;;;;10283242;28;20425;-46
2023/07/06 23:34:59;;;;;;;3.33;2.80;;;20.70;64.70;;;;;;10296940;28;20096;-47
2023/07/06 23:40:00;;;;;;;2.95;2.40;;;20.70;64.70;;;;;;10295303;28;20115;-46
2023/07/06 23:45:00;;;;;;;2.50;2.30;;;20.70;64.60;;;;;;10301688;28;20102;-47
2023/07/06 23:50:01;;;;;;;2.58;2.38;;;20.70;64.60;;;;;;10283707;28;20037;-49
2023/07/06 23:55:02;;;;;;;3.20;2.45;;;20.70;64.60;;;;;;10281866;28;20023;-47
